sensor_id;sensor_type;location;lat;lon;timestamp;P1;durP1;ratioP1;P2;durP2;ratioP2
462;SDS011;218;51.902;9.542;2023-01-24T00:00:08;13.07;;;9.38;;
462;SDS011;218;51.902;9.542;2023-01-24T00:02:37;13.27;;;10.00;;
462;SDS011;218;51.902;9.542;2023-01-24T00:05:06;14.55;;;10.35;;
462;SDS011;218;51.902;9.542;2023-01-24T00:07:33;11.50;;;9.35;;
462;SDS011;218;51.902;9.542;2023-01-24T00:10:00;14.43;;;9.82;;
462;SDS011;218;51.902;9.542;2023-01-24T00:12:28;14.48;;;9.88;;
462;SDS011;218;51.902;9.542;2023-01-24T00:14:54;13.55;;;8.70;;
462;SDS011;218;51.902;9.542;2023-01-24T00:17:23;13.95;;;9.10;;
462;SDS011;218;51.902;9.542;2023-01-24T00:19:50;12.52;;;9.48;;
462;SDS011;218;51.902;9.542;2023-01-24T00:22:18;11.57;;;8.20;;
462;SDS011;218;51.902;9.542;2023-01-24T00:24:45;15.20;;;10.20;;
462;SDS011;218;51.902;9.542;2023-01-24T00:27:13;13.85;;;10.48;;
462;SDS011;218;51.902;9.542;2023-01-24T00:29:40;15.43;;;9.05;;
462;SDS011;218;51.902;9.542;2023-01-24T00:32:07;12.68;;;9.73;;
462;SDS011;218;51.902;9.542;2023-01-24T00:34:34;12.02;;;10.80;;
462;SDS011;218;51.902;9.542;2023-01-24T00:37:01;16.52;;;10.10;;
462;SDS011;218;51.902;9.542;2023-01-24T00:39:29;11.85;;;8.80;;
462;SDS011;218;51.902;9.542;2023-01-24T00:41:56;12.73;;;9.50;;
462;SDS011;218;51.902;9.542;2023-01-24T00:44:23;11.75;;;9.35;;
462;SDS011;218;51.902;9.542;2023-01-24T00:46:50;13.13;;;8.90;;
462;SDS011;218;51.902;9.542;2023-01-24T00:49:18;12.45;;;9.18;;
462;SDS011;218;51.902;9.542;2023-01-24T00:51:45;13.43;;;8.73;;
462;SDS011;218;51.902;9.542;2023-01-24T00:54:12;13.65;;;9.38;;
462;SDS011;218;51.902;9.542;2023-01-24T00:56:40;12.52;;;8.30;;
462;SDS011;218;51.902;9.542;2023-01-24T00:59:07;14.00;;;10.15;;
462;SDS011;218;51.902;9.542;2023-01-24T01:01:34;12.45;;;9.60;;
462;SDS011;218;51.902;9.542;2023-01-24T01:04:01;15.52;;;10.07;;
462;SDS011;218;51.902;9.542;2023-01-24T01:06:28;16.20;;;9.18;;
462;SDS011;218;51.902;9.542;2023-01-24T01:08:55;13.50;;;8.90;;
462;SDS011;218;51.902;9.542;2023-01-24T01:11:22;12.38;;;9.25;;
462;SDS011;218;51.902;9.542;2023-01-24T01:13:53;16.05;;;9.65;;
462;SDS011;218;51.902;9.542;2023-01-24T01:16:20;11.55;;;8.30;;
462;SDS011;218;51.902;9.542;2023-01-24T01:18:48;13.88;;;9.10;;
462;SDS011;218;51.902;9.542;2023-01-24T01:21:16;13.82;;;9.85;;
462;SDS011;218;51.902;9.542;2023-01-24T01:23:44;11.50;;;8.52;;
462;SDS011;218;51.902;9.542;2023-01-24T01:26:13;14.90;;;8.90;;
462;SDS011;218;51.902;9.542;2023-01-24T01:28:41;13.15;;;8.63;;
462;SDS011;218;51.902;9.542;2023-01-24T01:31:10;14.10;;;10.20;;
462;SDS011;218;51.902;9.542;2023-01-24T01:33:37;12.70;;;9.50;;
462;SDS011;218;51.902;9.542;2023-01-24T01:36:04;17.08;;;11.15;;
462;SDS011;218;51.902;9.542;2023-01-24T01:38:31;13.75;;;10.57;;
462;SDS011;218;51.902;9.542;2023-01-24T01:40:58;13.73;;;9.18;;
462;SDS011;218;51.902;9.542;2023-01-24T01:43:26;15.98;;;10.50;;
462;SDS011;218;51.902;9.542;2023-01-24T01:45:54;12.57;;;9.68;;
462;SDS011;218;51.902;9.542;2023-01-24T01:48:29;10.70;;;8.93;;
462;SDS011;218;51.902;9.542;2023-01-24T01:51:03;14.48;;;10.63;;
462;SDS011;218;51.902;9.542;2023-01-24T01:53:37;13.13;;;10.05;;
462;SDS011;218;51.902;9.542;2023-01-24T01:56:10;13.10;;;9.48;;
462;SDS011;218;51.902;9.542;2023-01-24T01:58:42;14.82;;;10.52;;
462;SDS011;218;51.902;9.542;2023-01-24T02:01:10;12.90;;;10.75;;
462;SDS011;218;51.902;9.542;2023-01-24T02:03:40;13.02;;;9.57;;
462;SDS011;218;51.902;9.542;2023-01-24T02:06:30;13.57;;;11.23;;
462;SDS011;218;51.902;9.542;2023-01-24T02:09:07;14.07;;;10.45;;
462;SDS011;218;51.902;9.542;2023-01-24T02:11:36;12.30;;;10.00;;
462;SDS011;218;51.902;9.542;2023-01-24T02:14:04;14.48;;;11.18;;
462;SDS011;218;51.902;9.542;2023-01-24T02:16:51;13.13;;;9.80;;
462;SDS011;218;51.902;9.542;2023-01-24T02:19:23;14.02;;;9.13;;
462;SDS011;218;51.902;9.542;2023-01-24T02:21:57;14.75;;;9.63;;
462;SDS011;218;51.902;9.542;2023-01-24T02:24:36;13.10;;;9.63;;
462;SDS011;218;51.902;9.542;2023-01-24T02:27:07;16.38;;;10.82;;
462;SDS011;218;51.902;9.542;2023-01-24T02:29:34;13.85;;;10.30;;
462;SDS011;218;51.902;9.542;2023-01-24T02:32:02;15.77;;;10.93;;
462;SDS011;218;51.902;9.542;2023-01-24T02:34:32;11.90;;;10.60;;
462;SDS011;218;51.902;9.542;2023-01-24T02:37:01;11.60;;;9.90;;
462;SDS011;218;51.902;9.542;2023-01-24T02:39:32;15.60;;;11.27;;
462;SDS011;218;51.902;9.542;2023-01-24T02:42:05;15.60;;;10.20;;
462;SDS011;218;51.902;9.542;2023-01-24T02:44:37;12.57;;;9.18;;
462;SDS011;218;51.902;9.542;2023-01-24T02:47:08;13.18;;;10.70;;
462;SDS011;218;51.902;9.542;2023-01-24T02:49:35;14.77;;;11.48;;
462;SDS011;218;51.902;9.542;2023-01-24T02:52:02;13.23;;;10.30;;
462;SDS011;218;51.902;9.542;2023-01-24T02:54:47;14.90;;;10.15;;
462;SDS011;218;51.902;9.542;2023-01-24T02:57:15;13.50;;;10.05;;
462;SDS011;218;51.902;9.542;2023-01-24T02:59:59;12.90;;;9.77;;
462;SDS011;218;51.902;9.542;2023-01-24T03:02:26;14.13;;;9.50;;
462;SDS011;218;51.902;9.542;2023-01-24T03:04:53;12.52;;;8.82;;
462;SDS011;218;51.902;9.542;2023-01-24T03:07:20;9.82;;;8.80;;
462;SDS011;218;51.902;9.542;2023-01-24T03:09:48;13.30;;;10.13;;
462;SDS011;218;51.902;9.542;2023-01-24T03:12:16;16.33;;;10.75;;
462;SDS011;218;51.902;9.542;2023-01-24T03:15:01;13.55;;;10.15;;
462;SDS011;218;51.902;9.542;2023-01-24T03:17:45;13.60;;;10.15;;
462;SDS011;218;51.902;9.542;2023-01-24T03:20:29;15.15;;;11.35;;
462;SDS011;218;51.902;9.542;2023-01-24T03:23:13;11.10;;;9.93;;
462;SDS011;218;51.902;9.542;2023-01-24T03:25:58;13.30;;;10.30;;
462;SDS011;218;51.902;9.542;2023-01-24T03:28:43;15.13;;;10.63;;
462;SDS011;218;51.902;9.542;2023-01-24T03:31:28;14.73;;;11.13;;
462;SDS011;218;51.902;9.542;2023-01-24T03:34:12;11.68;;;9.68;;
462;SDS011;218;51.902;9.542;2023-01-24T03:36:58;20.38;;;11.13;;
462;SDS011;218;51.902;9.542;2023-01-24T03:39:25;11.43;;;9.18;;
462;SDS011;218;51.902;9.542;2023-01-24T03:42:10;13.32;;;8.80;;
462;SDS011;218;51.902;9.542;2023-01-24T03:44:38;10.30;;;9.07;;
462;SDS011;218;51.902;9.542;2023-01-24T03:47:05;11.68;;;9.30;;
462;SDS011;218;51.902;9.542;2023-01-24T03:49:32;11.88;;;8.93;;
462;SDS011;218;51.902;9.542;2023-01-24T03:52:16;11.65;;;9.40;;
462;SDS011;218;51.902;9.542;2023-01-24T03:54:54;15.10;;;10.77;;
462;SDS011;218;51.902;9.542;2023-01-24T03:57:22;12.60;;;8.98;;
462;SDS011;218;51.902;9.542;2023-01-24T03:59:50;14.13;;;10.25;;
462;SDS011;218;51.902;9.542;2023-01-24T04:02:17;12.52;;;9.82;;
462;SDS011;218;51.902;9.542;2023-01-24T04:04:45;10.73;;;8.57;;
462;SDS011;218;51.902;9.542;2023-01-24T04:07:29;10.85;;;8.32;;
462;SDS011;218;51.902;9.542;2023-01-24T04:09:56;12.60;;;8.88;;
462;SDS011;218;51.902;9.542;2023-01-24T04:12:23;11.95;;;9.50;;
462;SDS011;218;51.902;9.542;2023-01-24T04:14:52;11.30;;;7.70;;
462;SDS011;218;51.902;9.542;2023-01-24T04:17:19;12.68;;;8.02;;
462;SDS011;218;51.902;9.542;2023-01-24T04:19:46;11.18;;;8.00;;
462;SDS011;218;51.902;9.542;2023-01-24T04:22:14;10.90;;;7.75;;
462;SDS011;218;51.902;9.542;2023-01-24T04:24:41;11.93;;;9.65;;
462;SDS011;218;51.902;9.542;2023-01-24T04:27:08;13.70;;;8.90;;
462;SDS011;218;51.902;9.542;2023-01-24T04:29:35;9.88;;;7.85;;
462;SDS011;218;51.902;9.542;2023-01-24T04:32:03;11.55;;;8.68;;
462;SDS011;218;51.902;9.542;2023-01-24T04:34:31;11.00;;;8.43;;
462;SDS011;218;51.902;9.542;2023-01-24T04:36:58;11.65;;;8.80;;
462;SDS011;218;51.902;9.542;2023-01-24T04:39:24;13.32;;;9.43;;
462;SDS011;218;51.902;9.542;2023-01-24T04:41:52;11.02;;;8.32;;
462;SDS011;218;51.902;9.542;2023-01-24T04:44:18;9.50;;;7.38;;
462;SDS011;218;51.902;9.542;2023-01-24T04:46:45;9.15;;;7.90;;
462;SDS011;218;51.902;9.542;2023-01-24T04:49:14;7.97;;;7.03;;
462;SDS011;218;51.902;9.542;2023-01-24T04:51:40;10.32;;;7.10;;
462;SDS011;218;51.902;9.542;2023-01-24T04:54:08;9.90;;;7.50;;
462;SDS011;218;51.902;9.542;2023-01-24T04:56:35;10.38;;;8.10;;
462;SDS011;218;51.902;9.542;2023-01-24T04:59:02;12.60;;;8.02;;
462;SDS011;218;51.902;9.542;2023-01-24T05:01:29;10.70;;;7.93;;
462;SDS011;218;51.902;9.542;2023-01-24T05:03:56;9.50;;;8.15;;
462;SDS011;218;51.902;9.542;2023-01-24T05:06:26;10.73;;;8.30;;
462;SDS011;218;51.902;9.542;2023-01-24T05:08:55;13.20;;;8.95;;
462;SDS011;218;51.902;9.542;2023-01-24T05:11:22;12.10;;;8.65;;
462;SDS011;218;51.902;9.542;2023-01-24T05:13:50;13.85;;;9.30;;
462;SDS011;218;51.902;9.542;2023-01-24T05:16:17;9.20;;;7.00;;
462;SDS011;218;51.902;9.542;2023-01-24T05:18:44;7.95;;;7.05;;
462;SDS011;218;51.902;9.542;2023-01-24T05:21:12;8.00;;;7.07;;
462;SDS011;218;51.902;9.542;2023-01-24T05:23:42;10.80;;;6.85;;
462;SDS011;218;51.902;9.542;2023-01-24T05:26:09;7.90;;;5.90;;
462;SDS011;218;51.902;9.542;2023-01-24T05:28:36;9.02;;;6.68;;
462;SDS011;218;51.902;9.542;2023-01-24T05:31:04;9.43;;;7.50;;
462;SDS011;218;51.902;9.542;2023-01-24T05:33:33;10.40;;;6.97;;
462;SDS011;218;51.902;9.542;2023-01-24T05:36:01;7.40;;;6.18;;
462;SDS011;218;51.902;9.542;2023-01-24T05:38:30;6.35;;;5.75;;
462;SDS011;218;51.902;9.542;2023-01-24T05:40:59;6.30;;;5.45;;
462;SDS011;218;51.902;9.542;2023-01-24T05:43:27;8.60;;;5.80;;
462;SDS011;218;51.902;9.542;2023-01-24T05:45:56;6.57;;;4.88;;
462;SDS011;218;51.902;9.542;2023-01-24T05:48:25;6.75;;;5.95;;
462;SDS011;218;51.902;9.542;2023-01-24T05:50:55;7.57;;;4.95;;
462;SDS011;218;51.902;9.542;2023-01-24T05:53:23;6.22;;;5.63;;
462;SDS011;218;51.902;9.542;2023-01-24T05:55:54;6.10;;;5.50;;
462;SDS011;218;51.902;9.542;2023-01-24T05:58:23;6.93;;;4.93;;
462;SDS011;218;51.902;9.542;2023-01-24T06:00:50;6.85;;;4.78;;
462;SDS011;218;51.902;9.542;2023-01-24T06:03:17;5.03;;;4.53;;
462;SDS011;218;51.902;9.542;2023-01-24T06:05:45;4.90;;;4.40;;
462;SDS011;218;51.902;9.542;2023-01-24T06:08:13;7.30;;;5.60;;
462;SDS011;218;51.902;9.542;2023-01-24T06:10:40;6.68;;;5.32;;
462;SDS011;218;51.902;9.542;2023-01-24T06:13:07;7.70;;;5.35;;
462;SDS011;218;51.902;9.542;2023-01-24T06:15:36;5.05;;;4.47;;
462;SDS011;218;51.902;9.542;2023-01-24T06:18:03;5.35;;;4.72;;
462;SDS011;218;51.902;9.542;2023-01-24T06:20:31;6.15;;;4.97;;
462;SDS011;218;51.902;9.542;2023-01-24T06:22:59;5.93;;;4.15;;
462;SDS011;218;51.902;9.542;2023-01-24T06:25:30;5.40;;;4.90;;
462;SDS011;218;51.902;9.542;2023-01-24T06:27:58;5.65;;;4.50;;
462;SDS011;218;51.902;9.542;2023-01-24T06:30:25;4.88;;;4.38;;
462;SDS011;218;51.902;9.542;2023-01-24T06:32:57;4.43;;;3.70;;
462;SDS011;218;51.902;9.542;2023-01-24T06:35:35;5.82;;;5.28;;
462;SDS011;218;51.902;9.542;2023-01-24T06:38:13;6.63;;;4.13;;
462;SDS011;218;51.902;9.542;2023-01-24T06:40:43;4.70;;;4.30;;
462;SDS011;218;51.902;9.542;2023-01-24T06:43:11;5.00;;;4.30;;
462;SDS011;218;51.902;9.542;2023-01-24T06:45:38;5.72;;;5.13;;
462;SDS011;218;51.902;9.542;2023-01-24T06:48:06;4.93;;;4.53;;
462;SDS011;218;51.902;9.542;2023-01-24T06:50:33;5.82;;;4.90;;
462;SDS011;218;51.902;9.542;2023-01-24T06:53:00;8.45;;;4.85;;
462;SDS011;218;51.902;9.542;2023-01-24T06:55:27;6.32;;;5.07;;
462;SDS011;218;51.902;9.542;2023-01-24T06:57:54;7.13;;;5.40;;
462;SDS011;218;51.902;9.542;2023-01-24T07:00:21;8.05;;;6.40;;
462;SDS011;218;51.902;9.542;2023-01-24T07:02:55;10.80;;;6.45;;
462;SDS011;218;51.902;9.542;2023-01-24T07:05:24;7.65;;;6.65;;
462;SDS011;218;51.902;9.542;2023-01-24T07:07:51;8.27;;;7.10;;
462;SDS011;218;51.902;9.542;2023-01-24T07:10:18;10.35;;;7.38;;
462;SDS011;218;51.902;9.542;2023-01-24T07:12:46;7.38;;;6.68;;
462;SDS011;218;51.902;9.542;2023-01-24T07:15:13;8.68;;;6.68;;
462;SDS011;218;51.902;9.542;2023-01-24T07:17:40;10.85;;;7.10;;
462;SDS011;218;51.902;9.542;2023-01-24T07:20:08;9.70;;;7.53;;
462;SDS011;218;51.902;9.542;2023-01-24T07:22:38;10.15;;;7.32;;
462;SDS011;218;51.902;9.542;2023-01-24T07:25:08;7.60;;;6.05;;
462;SDS011;218;51.902;9.542;2023-01-24T07:27:39;7.95;;;7.15;;
462;SDS011;218;51.902;9.542;2023-01-24T07:30:07;7.80;;;6.40;;
462;SDS011;218;51.902;9.542;2023-01-24T07:32:34;7.63;;;6.32;;
462;SDS011;218;51.902;9.542;2023-01-24T07:35:01;7.93;;;6.10;;
462;SDS011;218;51.902;9.542;2023-01-24T07:37:29;8.70;;;7.65;;
462;SDS011;218;51.902;9.542;2023-01-24T07:39:58;9.88;;;7.82;;
462;SDS011;218;51.902;9.542;2023-01-24T07:42:24;7.72;;;5.88;;
462;SDS011;218;51.902;9.542;2023-01-24T07:44:51;6.50;;;5.90;;
462;SDS011;218;51.902;9.542;2023-01-24T07:47:19;7.55;;;6.32;;
462;SDS011;218;51.902;9.542;2023-01-24T07:49:45;6.30;;;5.70;;
462;SDS011;218;51.902;9.542;2023-01-24T07:52:12;6.60;;;5.15;;
462;SDS011;218;51.902;9.542;2023-01-24T07:54:39;6.28;;;5.65;;
462;SDS011;218;51.902;9.542;2023-01-24T07:57:08;7.10;;;6.20;;
462;SDS011;218;51.902;9.542;2023-01-24T07:59:34;8.40;;;7.30;;
462;SDS011;218;51.902;9.542;2023-01-24T08:02:01;9.52;;;6.85;;
462;SDS011;218;51.902;9.542;2023-01-24T08:04:28;7.90;;;5.85;;
462;SDS011;218;51.902;9.542;2023-01-24T08:06:55;7.30;;;6.07;;
462;SDS011;218;51.902;9.542;2023-01-24T08:09:39;9.45;;;6.75;;
462;SDS011;218;51.902;9.542;2023-01-24T08:12:08;8.43;;;5.97;;
462;SDS011;218;51.902;9.542;2023-01-24T08:14:35;7.03;;;6.38;;
462;SDS011;218;51.902;9.542;2023-01-24T08:17:02;8.73;;;6.20;;
462;SDS011;218;51.902;9.542;2023-01-24T08:19:29;7.85;;;6.28;;
462;SDS011;218;51.902;9.542;2023-01-24T08:21:56;8.10;;;6.82;;
462;SDS011;218;51.902;9.542;2023-01-24T08:24:23;8.38;;;7.00;;
462;SDS011;218;51.902;9.542;2023-01-24T08:26:50;7.90;;;6.25;;
462;SDS011;218;51.902;9.542;2023-01-24T08:29:19;7.95;;;6.80;;
462;SDS011;218;51.902;9.542;2023-01-24T08:31:45;6.53;;;5.95;;
462;SDS011;218;51.902;9.542;2023-01-24T08:34:13;8.88;;;7.70;;
462;SDS011;218;51.902;9.542;2023-01-24T08:36:40;9.93;;;8.10;;
462;SDS011;218;51.902;9.542;2023-01-24T08:39:07;9.30;;;7.25;;
462;SDS011;218;51.902;9.542;2023-01-24T08:41:34;9.23;;;7.75;;
462;SDS011;218;51.902;9.542;2023-01-24T08:44:01;9.85;;;8.35;;
462;SDS011;218;51.902;9.542;2023-01-24T08:46:30;9.00;;;8.10;;
462;SDS011;218;51.902;9.542;2023-01-24T08:48:57;8.18;;;7.35;;
462;SDS011;218;51.902;9.542;2023-01-24T08:51:24;8.57;;;7.60;;
462;SDS011;218;51.902;9.542;2023-01-24T08:53:51;9.23;;;7.95;;
462;SDS011;218;51.902;9.542;2023-01-24T08:56:18;8.27;;;7.30;;
462;SDS011;218;51.902;9.542;2023-01-24T08:58:45;7.45;;;5.90;;
462;SDS011;218;51.902;9.542;2023-01-24T09:01:11;7.63;;;6.32;;
462;SDS011;218;51.902;9.542;2023-01-24T09:03:40;6.85;;;6.03;;
462;SDS011;218;51.902;9.542;2023-01-24T09:06:07;6.32;;;5.63;;
462;SDS011;218;51.902;9.542;2023-01-24T09:08:34;8.50;;;6.65;;
462;SDS011;218;51.902;9.542;2023-01-24T09:11:01;8.23;;;6.43;;
462;SDS011;218;51.902;9.542;2023-01-24T09:13:29;8.10;;;6.72;;
462;SDS011;218;51.902;9.542;2023-01-24T09:15:57;9.80;;;7.80;;
462;SDS011;218;51.902;9.542;2023-01-24T09:18:24;9.40;;;7.70;;
462;SDS011;218;51.902;9.542;2023-01-24T09:20:52;10.85;;;8.60;;
462;SDS011;218;51.902;9.542;2023-01-24T09:23:19;9.23;;;8.27;;
462;SDS011;218;51.902;9.542;2023-01-24T09:25:50;11.82;;;9.80;;
462;SDS011;218;51.902;9.542;2023-01-24T09:28:18;13.27;;;11.05;;
462;SDS011;218;51.902;9.542;2023-01-24T09:30:46;19.60;;;17.02;;
462;SDS011;218;51.902;9.542;2023-01-24T09:33:14;19.38;;;15.45;;
462;SDS011;218;51.902;9.542;2023-01-24T09:35:42;18.85;;;14.10;;
462;SDS011;218;51.902;9.542;2023-01-24T09:38:18;14.48;;;11.13;;
462;SDS011;218;51.902;9.542;2023-01-24T09:40:50;14.05;;;10.30;;
462;SDS011;218;51.902;9.542;2023-01-24T09:43:26;16.70;;;12.95;;
462;SDS011;218;51.902;9.542;2023-01-24T09:46:04;15.88;;;11.85;;
462;SDS011;218;51.902;9.542;2023-01-24T09:48:39;18.48;;;13.77;;
462;SDS011;218;51.902;9.542;2023-01-24T09:51:10;27.73;;;15.55;;
462;SDS011;218;51.902;9.542;2023-01-24T09:53:43;29.30;;;18.15;;
462;SDS011;218;51.902;9.542;2023-01-24T09:56:18;27.45;;;18.77;;
462;SDS011;218;51.902;9.542;2023-01-24T09:58:53;35.55;;;20.15;;
462;SDS011;218;51.902;9.542;2023-01-24T10:01:35;31.67;;;20.73;;
462;SDS011;218;51.902;9.542;2023-01-24T10:04:03;32.70;;;21.67;;
462;SDS011;218;51.902;9.542;2023-01-24T10:06:31;30.10;;;19.33;;
462;SDS011;218;51.902;9.542;2023-01-24T10:09:01;27.30;;;17.52;;
462;SDS011;218;51.902;9.542;2023-01-24T10:11:40;20.60;;;14.85;;
462;SDS011;218;51.902;9.542;2023-01-24T10:14:18;14.40;;;11.40;;
462;SDS011;218;51.902;9.542;2023-01-24T10:17:06;12.15;;;9.57;;
462;SDS011;218;51.902;9.542;2023-01-24T10:19:55;10.20;;;8.70;;
462;SDS011;218;51.902;9.542;2023-01-24T10:22:48;9.50;;;8.43;;
462;SDS011;218;51.902;9.542;2023-01-24T10:25:28;8.82;;;7.93;;
462;SDS011;218;51.902;9.542;2023-01-24T10:28:00;10.70;;;8.68;;
462;SDS011;218;51.902;9.542;2023-01-24T10:30:29;8.02;;;6.88;;
462;SDS011;218;51.902;9.542;2023-01-24T10:33:01;8.90;;;7.15;;
462;SDS011;218;51.902;9.542;2023-01-24T10:35:32;7.65;;;6.82;;
462;SDS011;218;51.902;9.542;2023-01-24T10:38:06;9.23;;;8.23;;
462;SDS011;218;51.902;9.542;2023-01-24T10:40:49;8.07;;;7.38;;
462;SDS011;218;51.902;9.542;2023-01-24T10:43:17;6.25;;;5.55;;
462;SDS011;218;51.902;9.542;2023-01-24T10:45:46;8.65;;;7.75;;
462;SDS011;218;51.902;9.542;2023-01-24T10:48:27;7.57;;;6.88;;
462;SDS011;218;51.902;9.542;2023-01-24T10:51:11;8.57;;;6.80;;
462;SDS011;218;51.902;9.542;2023-01-24T10:53:41;7.05;;;6.32;;
462;SDS011;218;51.902;9.542;2023-01-24T10:56:10;7.97;;;6.53;;
462;SDS011;218;51.902;9.542;2023-01-24T10:58:39;9.98;;;7.10;;
462;SDS011;218;51.902;9.542;2023-01-24T11:01:14;8.48;;;7.65;;
462;SDS011;218;51.902;9.542;2023-01-24T11:03:44;10.90;;;9.80;;
462;SDS011;218;51.902;9.542;2023-01-24T11:06:22;8.93;;;8.13;;
462;SDS011;218;51.902;9.542;2023-01-24T11:08:54;12.57;;;10.43;;
462;SDS011;218;51.902;9.542;2023-01-24T11:11:29;8.75;;;7.95;;
462;SDS011;218;51.902;9.542;2023-01-24T11:13:58;9.23;;;8.13;;
462;SDS011;218;51.902;9.542;2023-01-24T11:16:27;7.40;;;6.70;;
462;SDS011;218;51.902;9.542;2023-01-24T11:18:59;8.15;;;6.53;;
462;SDS011;218;51.902;9.542;2023-01-24T11:21:28;7.82;;;7.00;;
462;SDS011;218;51.902;9.542;2023-01-24T11:24:00;7.75;;;6.60;;
462;SDS011;218;51.902;9.542;2023-01-24T11:26:37;7.00;;;6.30;;
462;SDS011;218;51.902;9.542;2023-01-24T11:29:17;8.73;;;7.20;;
462;SDS011;218;51.902;9.542;2023-01-24T11:31:44;8.38;;;7.35;;
462;SDS011;218;51.902;9.542;2023-01-24T11:34:20;10.48;;;7.60;;
462;SDS011;218;51.902;9.542;2023-01-24T11:37:09;8.95;;;7.85;;
462;SDS011;218;51.902;9.542;2023-01-24T11:39:46;6.93;;;6.10;;
462;SDS011;218;51.902;9.542;2023-01-24T11:42:25;7.47;;;6.78;;
462;SDS011;218;51.902;9.542;2023-01-24T11:48:12;8.13;;;6.20;;
462;SDS011;218;51.902;9.542;2023-01-24T11:50:47;7.65;;;6.05;;
462;SDS011;218;51.902;9.542;2023-01-24T11:56:18;6.70;;;5.53;;
462;SDS011;218;51.902;9.542;2023-01-24T11:59:08;5.60;;;5.10;;
462;SDS011;218;51.902;9.542;2023-01-24T12:01:44;6.47;;;5.75;;
462;SDS011;218;51.902;9.542;2023-01-24T12:04:22;7.65;;;6.93;;
462;SDS011;218;51.902;9.542;2023-01-24T12:07:06;6.88;;;6.18;;
462;SDS011;218;51.902;9.542;2023-01-24T12:09:39;5.85;;;5.18;;
462;SDS011;218;51.902;9.542;2023-01-24T12:12:12;6.22;;;5.63;;
462;SDS011;218;51.902;9.542;2023-01-24T12:15:02;6.63;;;5.40;;
462;SDS011;218;51.902;9.542;2023-01-24T12:17:45;6.85;;;5.40;;
462;SDS011;218;51.902;9.542;2023-01-24T12:20:36;6.25;;;5.30;;
462;SDS011;218;51.902;9.542;2023-01-24T12:23:24;9.57;;;5.82;;
462;SDS011;218;51.902;9.542;2023-01-24T12:26:00;8.27;;;6.20;;
462;SDS011;218;51.902;9.542;2023-01-24T12:28:35;6.80;;;5.65;;
462;SDS011;218;51.902;9.542;2023-01-24T12:31:08;6.07;;;5.43;;
462;SDS011;218;51.902;9.542;2023-01-24T12:33:42;7.70;;;6.93;;
462;SDS011;218;51.902;9.542;2023-01-24T12:36:16;8.88;;;6.50;;
462;SDS011;218;51.902;9.542;2023-01-24T12:38:51;6.70;;;6.10;;
462;SDS011;218;51.902;9.542;2023-01-24T12:41:25;9.88;;;7.68;;
462;SDS011;218;51.902;9.542;2023-01-24T12:43:58;7.45;;;6.75;;
462;SDS011;218;51.902;9.542;2023-01-24T12:46:33;9.18;;;7.38;;
462;SDS011;218;51.902;9.542;2023-01-24T12:49:06;9.48;;;8.43;;
462;SDS011;218;51.902;9.542;2023-01-24T12:51:42;7.93;;;6.88;;
462;SDS011;218;51.902;9.542;2023-01-24T12:54:14;9.18;;;7.93;;
462;SDS011;218;51.902;9.542;2023-01-24T12:56:49;8.90;;;8.00;;
462;SDS011;218;51.902;9.542;2023-01-24T12:59:22;9.25;;;8.10;;
462;SDS011;218;51.902;9.542;2023-01-24T13:02:00;8.93;;;7.65;;
462;SDS011;218;51.902;9.542;2023-01-24T13:04:42;7.70;;;6.90;;
462;SDS011;218;51.902;9.542;2023-01-24T13:07:17;10.32;;;7.75;;
462;SDS011;218;51.902;9.542;2023-01-24T13:10:00;9.93;;;8.23;;
462;SDS011;218;51.902;9.542;2023-01-24T13:12:36;8.73;;;7.85;;
462;SDS011;218;51.902;9.542;2023-01-24T13:15:04;10.70;;;7.75;;
462;SDS011;218;51.902;9.542;2023-01-24T13:20:39;7.65;;;6.72;;
462;SDS011;218;51.902;9.542;2023-01-24T13:23:23;7.60;;;6.80;;
462;SDS011;218;51.902;9.542;2023-01-24T13:28:55;7.68;;;6.60;;
462;SDS011;218;51.902;9.542;2023-01-24T13:31:37;6.45;;;5.85;;
462;SDS011;218;51.902;9.542;2023-01-24T13:34:17;7.05;;;5.43;;
462;SDS011;218;51.902;9.542;2023-01-24T13:36:47;6.53;;;5.93;;
462;SDS011;218;51.902;9.542;2023-01-24T13:39:27;6.45;;;5.85;;
462;SDS011;218;51.902;9.542;2023-01-24T13:42:00;5.60;;;5.10;;
462;SDS011;218;51.902;9.542;2023-01-24T13:44:29;7.30;;;5.75;;
462;SDS011;218;51.902;9.542;2023-01-24T13:47:00;6.45;;;5.85;;
462;SDS011;218;51.902;9.542;2023-01-24T13:49:37;7.18;;;6.03;;
462;SDS011;218;51.902;9.542;2023-01-24T13:55:08;8.23;;;5.75;;
462;SDS011;218;51.902;9.542;2023-01-24T13:58:26;9.60;;;6.70;;
462;SDS011;218;51.902;9.542;2023-01-24T14:00:55;9.48;;;7.43;;
462;SDS011;218;51.902;9.542;2023-01-24T14:03:27;8.45;;;7.38;;
462;SDS011;218;51.902;9.542;2023-01-24T14:06:07;6.88;;;5.47;;
462;SDS011;218;51.902;9.542;2023-01-24T14:08:43;6.97;;;6.30;;
462;SDS011;218;51.902;9.542;2023-01-24T14:11:23;6.57;;;5.95;;
462;SDS011;218;51.902;9.542;2023-01-24T14:16:57;5.90;;;5.35;;
462;SDS011;218;51.902;9.542;2023-01-24T14:19:27;6.43;;;5.70;;
462;SDS011;218;51.902;9.542;2023-01-24T14:21:59;6.00;;;5.40;;
462;SDS011;218;51.902;9.542;2023-01-24T14:24:33;12.00;;;9.45;;
462;SDS011;218;51.902;9.542;2023-01-24T14:27:13;11.15;;;8.48;;
462;SDS011;218;51.902;9.542;2023-01-24T14:29:46;8.45;;;6.90;;
462;SDS011;218;51.902;9.542;2023-01-24T14:32:17;8.82;;;7.82;;
462;SDS011;218;51.902;9.542;2023-01-24T14:34:49;13.07;;;9.68;;
462;SDS011;218;51.902;9.542;2023-01-24T14:37:23;11.43;;;10.32;;
462;SDS011;218;51.902;9.542;2023-01-24T14:39:52;8.35;;;7.40;;
462;SDS011;218;51.902;9.542;2023-01-24T14:42:34;7.10;;;6.43;;
462;SDS011;218;51.902;9.542;2023-01-24T14:45:03;7.70;;;6.95;;
462;SDS011;218;51.902;9.542;2023-01-24T14:47:38;7.20;;;6.50;;
462;SDS011;218;51.902;9.542;2023-01-24T14:50:17;6.47;;;5.88;;
462;SDS011;218;51.902;9.542;2023-01-24T14:52:47;7.00;;;6.30;;
462;SDS011;218;51.902;9.542;2023-01-24T14:55:22;9.38;;;8.30;;
462;SDS011;218;51.902;9.542;2023-01-24T14:58:12;7.10;;;6.50;;
462;SDS011;218;51.902;9.542;2023-01-24T15:00:42;6.53;;;5.93;;
462;SDS011;218;51.902;9.542;2023-01-24T15:03:13;7.82;;;7.00;;
462;SDS011;218;51.902;9.542;2023-01-24T15:05:48;9.55;;;8.65;;
462;SDS011;218;51.902;9.542;2023-01-24T15:08:20;10.90;;;9.70;;
462;SDS011;218;51.902;9.542;2023-01-24T15:10:53;10.50;;;9.02;;
462;SDS011;218;51.902;9.542;2023-01-24T15:13:27;10.90;;;9.80;;
462;SDS011;218;51.902;9.542;2023-01-24T15:15:59;10.90;;;8.80;;
462;SDS011;218;51.902;9.542;2023-01-24T15:18:33;10.63;;;9.30;;
462;SDS011;218;51.902;9.542;2023-01-24T15:21:14;8.80;;;7.97;;
462;SDS011;218;51.902;9.542;2023-01-24T15:23:56;10.27;;;8.38;;
462;SDS011;218;51.902;9.542;2023-01-24T15:26:32;8.20;;;7.50;;
462;SDS011;218;51.902;9.542;2023-01-24T15:35:17;7.90;;;7.13;;
462;SDS011;218;51.902;9.542;2023-01-24T15:41:13;6.82;;;6.13;;
462;SDS011;218;51.902;9.542;2023-01-24T15:43:48;7.97;;;7.28;;
462;SDS011;218;51.902;9.542;2023-01-24T15:46:28;9.98;;;9.07;;
462;SDS011;218;51.902;9.542;2023-01-24T15:49:17;10.75;;;9.75;;
462;SDS011;218;51.902;9.542;2023-01-24T15:51:58;11.73;;;10.52;;
462;SDS011;218;51.902;9.542;2023-01-24T15:54:26;11.38;;;10.20;;
462;SDS011;218;51.902;9.542;2023-01-24T15:56:54;10.15;;;9.15;;
462;SDS011;218;51.902;9.542;2023-01-24T15:59:23;9.73;;;8.40;;
462;SDS011;218;51.902;9.542;2023-01-24T16:01:50;7.50;;;6.80;;
462;SDS011;218;51.902;9.542;2023-01-24T16:04:19;8.40;;;7.60;;
462;SDS011;218;51.902;9.542;2023-01-24T16:06:48;8.35;;;7.53;;
462;SDS011;218;51.902;9.542;2023-01-24T16:09:15;8.32;;;7.53;;
462;SDS011;218;51.902;9.542;2023-01-24T16:11:43;7.38;;;6.63;;
462;SDS011;218;51.902;9.542;2023-01-24T16:14:13;9.32;;;7.65;;
462;SDS011;218;51.902;9.542;2023-01-24T16:16:45;9.02;;;8.23;;
462;SDS011;218;51.902;9.542;2023-01-24T16:19:13;8.05;;;7.35;;
462;SDS011;218;51.902;9.542;2023-01-24T16:21:43;9.60;;;8.70;;
462;SDS011;218;51.902;9.542;2023-01-24T16:24:10;10.77;;;9.73;;
462;SDS011;218;51.902;9.542;2023-01-24T16:26:37;14.57;;;13.05;;
462;SDS011;218;51.902;9.542;2023-01-24T16:29:10;13.80;;;12.40;;